Sun City Center, Florida
Current Conditions -  °F | °C
As of 10:58 AM on Saturday 22 Nov 2014 (Local Time) from KMCF Reporting Station
Few Clouds Few Clouds  
Wind Chill: 75°   Ceiling: Unl
Heat Index: 75°   Visibility: 10mi
Dew Point: 69°   Wind: 16mph
Humidity: 81%   Direction: 100°E
Pressure: 30.22"   Gusts: NA
Location:  27.72°N, 82.35°W
Report Text: KMCF 221558Z AUTO 10014KT 10SM FEW022 24/21 A3022 RMK AO2 SLP237 T02390205
Loading
Personal Weather Stations






























Interactive Weather Map New forecast layout! Learn more

10-Day Weather Forecast

Advertisements
Track Severe Weather on mobile